Startpagina
METAR-TAF:

METAR-TAF

Vliegvelden :

Valdez, Alaska, Verenigde Staten

breedte: 61-08N, lengte: 146-16W, hoogte: 37 m

Actueel weer

Dit bericht is 22 minuten geleden gemaakt, om 03:56 UTC
Wind 18 kt uit het noordnoordoosten met uitschieters tot 25 kt
Temperatuur -3°C
Vochtigheid 39%
Druk 1019 hPa
Zicht: 16.1 km
Onbewolkt

METAR: PAVD 240356Z 03018G25KT 10SM CLR M03/M15 A3010 RMK AO2 SLP191 T10281150

Tijdstip: 19:18 (04:18 UTC)

Verwachting

Dit bericht is 4 uur en het 38 minuten geleden gemaakt, om 23:40 UTC
Verwachting geldig van 24 om 00 UTC tot 24 om 24 UTC
Wind 15 kt uit het noordoosten met uitschieters tot 28 kt
Zicht: 10 km
Weinig wolken op 6000 ft
Verspreide wolken op 12000 ft
Tijdelijke
van 24 om 00 UTC tot 24 om 04 UTC
Wind 15 kt uit het oostzuidoosten met uitschieters tot 25 kt

TAF: PAVD 232340Z 2400/2424 04015G28KT P6SM FEW060 SCT120 TEMPO 2400/2404 12015G25KT AMD LTD TO CLD VIS AND WIND

Waarnemingen en weersverwachtingen van meer dan 4000 vliegvelden (METAR en TAF).

De beschikbare stations zijn de gele en rode punten op de kaart.

Ga met uw muis naar het station om de naam te zien.

Klik dan om waarnemingen en weersverwachtingen te zien.

kaart wijzigen: klik op de groene knoppen met een zwart kruis om in te zoomen, op de groene knop met een streepje om uit te zoomen of op de groene pijlen voor aangrenzende kaarten.


METAR-TAF: